sensor_id;sensor_type;location;lat;lon;timestamp;P1;durP1;ratioP1;P2;durP2;ratioP2
61675;SDS011;47574;52.090;5.244;2022-07-23T00:00:12;3.4;;;2.1;;
61675;SDS011;47574;52.090;5.244;2022-07-23T00:01:59;3.1;;;2.1;;
61675;SDS011;47574;52.090;5.244;2022-07-23T00:05:31;2.9;;;1.9;;
61675;SDS011;47574;52.090;5.244;2022-07-23T00:07:18;2.8;;;2.0;;
61675;SDS011;47574;52.090;5.244;2022-07-23T00:09:04;2.5;;;2.31;;
61675;SDS011;47574;52.090;5.244;2022-07-23T00:10:50;2.9;;;2.31;;
61675;SDS011;47574;52.090;5.244;2022-07-23T00:12:37;2.7;;;2.5;;
61675;SDS011;47574;52.090;5.244;2022-07-23T00:14:25;3.7;;;2.9;;
61675;SDS011;47574;52.090;5.244;2022-07-23T00:17:57;4.5;;;2.5;;
61675;SDS011;47574;52.090;5.244;2022-07-23T00:19:43;2.7;;;2.31;;
61675;SDS011;47574;52.090;5.244;2022-07-23T00:21:31;4.3;;;2.6;;
61675;SDS011;47574;52.090;5.244;2022-07-23T00:23:17;2.6;;;2.4;;
61675;SDS011;47574;52.090;5.244;2022-07-23T00:25:03;5.4;;;3.1;;
61675;SDS011;47574;52.090;5.244;2022-07-23T00:28:36;3.9;;;2.9;;
61675;SDS011;47574;52.090;5.244;2022-07-23T00:30:22;3.4;;;2.5;;
61675;SDS011;47574;52.090;5.244;2022-07-23T00:32:10;2.4;;;2.21;;
61675;SDS011;47574;52.090;5.244;2022-07-23T00:33:56;2.4;;;2.21;;
61675;SDS011;47574;52.090;5.244;2022-07-23T00:35:43;2.21;;;2.0;;
61675;SDS011;47574;52.090;5.244;2022-07-23T00:37:30;3.8;;;3.5;;
61675;SDS011;47574;52.090;5.244;2022-07-23T00:41:04;3.4;;;3.1;;
61675;SDS011;47574;52.090;5.244;2022-07-23T00:42:51;2.8;;;2.6;;
61675;SDS011;47574;52.090;5.244;2022-07-23T00:44:37;3.3;;;2.8;;
61675;SDS011;47574;52.090;5.244;2022-07-23T00:46:25;3.4;;;2.5;;
61675;SDS011;47574;52.090;5.244;2022-07-23T00:48:11;4.0;;;2.8;;
61675;SDS011;47574;52.090;5.244;2022-07-23T00:49:57;3.7;;;3.0;;
61675;SDS011;47574;52.090;5.244;2022-07-23T00:53:32;3.5;;;2.8;;
61675;SDS011;47574;52.090;5.244;2022-07-23T00:55:18;4.41;;;3.0;;
61675;SDS011;47574;52.090;5.244;2022-07-23T00:57:04;3.5;;;3.2;;
61675;SDS011;47574;52.090;5.244;2022-07-23T00:58:51;5.11;;;3.1;;
61675;SDS011;47574;52.090;5.244;2022-07-23T01:00:37;3.9;;;3.5;;
61675;SDS011;47574;52.090;5.244;2022-07-23T01:04:10;4.1;;;3.4;;
61675;SDS011;47574;52.090;5.244;2022-07-23T01:05:57;5.2;;;3.2;;
61675;SDS011;47574;52.090;5.244;2022-07-23T01:07:45;3.7;;;2.9;;
61675;SDS011;47574;52.090;5.244;2022-07-23T01:09:31;3.4;;;3.1;;
61675;SDS011;47574;52.090;5.244;2022-07-23T01:11:18;4.61;;;3.5;;
61675;SDS011;47574;52.090;5.244;2022-07-23T01:13:07;3.8;;;3.4;;
61675;SDS011;47574;52.090;5.244;2022-07-23T01:16:44;3.6;;;3.2;;
61675;SDS011;47574;52.090;5.244;2022-07-23T01:18:32;4.0;;;3.6;;
61675;SDS011;47574;52.090;5.244;2022-07-23T01:20:20;3.3;;;3.0;;
61675;SDS011;47574;52.090;5.244;2022-07-23T01:22:07;5.5;;;4.5;;
61675;SDS011;47574;52.090;5.244;2022-07-23T01:23:54;4.61;;;4.2;;
61675;SDS011;47574;52.090;5.244;2022-07-23T01:25:46;5.0;;;2.9;;
61675;SDS011;47574;52.090;5.244;2022-07-23T01:27:33;4.5;;;3.0;;
61675;SDS011;47574;52.090;5.244;2022-07-23T01:31:07;3.7;;;2.8;;
61675;SDS011;47574;52.090;5.244;2022-07-23T01:32:54;3.9;;;3.1;;
61675;SDS011;47574;52.090;5.244;2022-07-23T01:34:41;3.9;;;3.5;;
61675;SDS011;47574;52.090;5.244;2022-07-23T01:36:27;5.2;;;3.0;;
61675;SDS011;47574;52.090;5.244;2022-07-23T01:38:14;4.5;;;3.5;;
61675;SDS011;47574;52.090;5.244;2022-07-23T01:41:49;4.1;;;3.6;;
61675;SDS011;47574;52.090;5.244;2022-07-23T01:43:35;4.5;;;4.1;;
61675;SDS011;47574;52.090;5.244;2022-07-23T01:45:21;4.0;;;3.6;;
61675;SDS011;47574;52.090;5.244;2022-07-23T01:47:08;4.41;;;3.3;;
61675;SDS011;47574;52.090;5.244;2022-07-23T01:48:54;5.5;;;4.1;;
61675;SDS011;47574;52.090;5.244;2022-07-23T01:50:40;4.8;;;4.3;;
61675;SDS011;47574;52.090;5.244;2022-07-23T01:54:13;5.0;;;3.3;;
61675;SDS011;47574;52.090;5.244;2022-07-23T01:55:59;4.2;;;3.8;;
61675;SDS011;47574;52.090;5.244;2022-07-23T01:57:46;5.11;;;4.61;;
61675;SDS011;47574;52.090;5.244;2022-07-23T01:59:33;4.2;;;3.5;;
61675;SDS011;47574;52.090;5.244;2022-07-23T02:01:20;3.6;;;3.2;;
61675;SDS011;47574;52.090;5.244;2022-07-23T02:03:08;4.1;;;3.7;;
61675;SDS011;47574;52.090;5.244;2022-07-23T02:06:40;5.6;;;3.8;;
61675;SDS011;47574;52.090;5.244;2022-07-23T02:08:26;5.0;;;3.8;;
61675;SDS011;47574;52.090;5.244;2022-07-23T02:10:12;6.1;;;3.7;;
61675;SDS011;47574;52.090;5.244;2022-07-23T02:11:59;3.6;;;3.3;;
61675;SDS011;47574;52.090;5.244;2022-07-23T02:13:45;4.1;;;3.7;;
61675;SDS011;47574;52.090;5.244;2022-07-23T02:17:18;4.61;;;3.9;;
61675;SDS011;47574;52.090;5.244;2022-07-23T02:19:04;4.2;;;3.5;;
61675;SDS011;47574;52.090;5.244;2022-07-23T02:20:50;5.5;;;3.7;;
61675;SDS011;47574;52.090;5.244;2022-07-23T02:22:38;4.0;;;3.7;;
61675;SDS011;47574;52.090;5.244;2022-07-23T02:24:25;4.5;;;4.1;;
61675;SDS011;47574;52.090;5.244;2022-07-23T02:26:11;4.3;;;3.6;;
61675;SDS011;47574;52.090;5.244;2022-07-23T02:29:43;4.41;;;3.6;;
61675;SDS011;47574;52.090;5.244;2022-07-23T02:31:30;3.5;;;3.2;;
61675;SDS011;47574;52.090;5.244;2022-07-23T02:33:17;4.0;;;3.6;;
61675;SDS011;47574;52.090;5.244;2022-07-23T02:35:04;4.2;;;3.8;;
61675;SDS011;47574;52.090;5.244;2022-07-23T02:40:25;5.8;;;3.6;;
61675;SDS011;47574;52.090;5.244;2022-07-23T02:42:11;4.91;;;4.41;;
61675;SDS011;47574;52.090;5.244;2022-07-23T02:43:58;9.6;;;4.8;;
61675;SDS011;47574;52.090;5.244;2022-07-23T02:45:44;5.7;;;4.41;;
61675;SDS011;47574;52.090;5.244;2022-07-23T02:47:32;5.0;;;3.7;;
61675;SDS011;47574;52.090;5.244;2022-07-23T02:49:18;5.11;;;4.0;;
61675;SDS011;47574;52.090;5.244;2022-07-23T02:52:51;6.9;;;4.5;;
61675;SDS011;47574;52.090;5.244;2022-07-23T02:54:39;4.2;;;3.7;;
61675;SDS011;47574;52.090;5.244;2022-07-23T02:56:25;4.41;;;3.9;;
61675;SDS011;47574;52.090;5.244;2022-07-23T02:58:11;5.9;;;4.5;;
61675;SDS011;47574;52.090;5.244;2022-07-23T02:59:57;5.2;;;4.7;;
61675;SDS011;47574;52.090;5.244;2022-07-23T03:01:44;5.7;;;4.7;;
61675;SDS011;47574;52.090;5.244;2022-07-23T03:05:17;5.9;;;5.3;;
61675;SDS011;47574;52.090;5.244;2022-07-23T03:07:03;5.3;;;4.8;;
61675;SDS011;47574;52.090;5.244;2022-07-23T03:08:49;5.4;;;4.91;;
61675;SDS011;47574;52.090;5.244;2022-07-23T03:10:35;5.11;;;4.61;;
61675;SDS011;47574;52.090;5.244;2022-07-23T03:12:21;7.8;;;5.5;;
61675;SDS011;47574;52.090;5.244;2022-07-23T03:15:54;5.9;;;5.4;;
61675;SDS011;47574;52.090;5.244;2022-07-23T03:17:40;5.3;;;4.91;;
61675;SDS011;47574;52.090;5.244;2022-07-23T03:19:26;7.3;;;5.2;;
61675;SDS011;47574;52.090;5.244;2022-07-23T03:21:12;5.4;;;4.2;;
61675;SDS011;47574;52.090;5.244;2022-07-23T03:22:59;6.5;;;4.61;;
61675;SDS011;47574;52.090;5.244;2022-07-23T03:25:01;6.2;;;4.91;;
61675;SDS011;47574;52.090;5.244;2022-07-23T03:26:47;7.0;;;4.3;;
61675;SDS011;47574;52.090;5.244;2022-07-23T03:30:20;4.8;;;4.41;;
61675;SDS011;47574;52.090;5.244;2022-07-23T03:32:07;6.6;;;4.2;;
61675;SDS011;47574;52.090;5.244;2022-07-23T03:33:54;5.7;;;4.61;;
61675;SDS011;47574;52.090;5.244;2022-07-23T03:38:07;6.8;;;4.8;;
61675;SDS011;47574;52.090;5.244;2022-07-23T03:39:53;5.2;;;4.7;;
61675;SDS011;47574;52.090;5.244;2022-07-23T03:41:39;7.6;;;5.0;;
61675;SDS011;47574;52.090;5.244;2022-07-23T03:45:11;5.8;;;4.91;;
61675;SDS011;47574;52.090;5.244;2022-07-23T03:46:58;5.3;;;4.8;;
61675;SDS011;47574;52.090;5.244;2022-07-23T03:48:46;6.2;;;5.6;;
61675;SDS011;47574;52.090;5.244;2022-07-23T03:50:32;6.9;;;4.61;;
61675;SDS011;47574;52.090;5.244;2022-07-23T03:52:19;6.1;;;4.5;;
61675;SDS011;47574;52.090;5.244;2022-07-23T03:54:06;6.0;;;4.5;;
61675;SDS011;47574;52.090;5.244;2022-07-23T03:57:39;4.3;;;3.9;;
61675;SDS011;47574;52.090;5.244;2022-07-23T03:59:26;7.1;;;4.2;;
61675;SDS011;47574;52.090;5.244;2022-07-23T04:01:12;4.41;;;4.0;;
61675;SDS011;47574;52.090;5.244;2022-07-23T04:02:59;4.3;;;3.8;;
61675;SDS011;47574;52.090;5.244;2022-07-23T04:04:46;3.8;;;3.4;;
61675;SDS011;47574;52.090;5.244;2022-07-23T04:06:34;3.7;;;3.4;;
61675;SDS011;47574;52.090;5.244;2022-07-23T04:10:08;4.2;;;3.8;;
61675;SDS011;47574;52.090;5.244;2022-07-23T04:11:55;4.7;;;4.2;;
61675;SDS011;47574;52.090;5.244;2022-07-23T04:13:41;4.7;;;4.3;;
61675;SDS011;47574;52.090;5.244;2022-07-23T04:15:27;4.8;;;4.2;;
61675;SDS011;47574;52.090;5.244;2022-07-23T04:17:14;4.91;;;4.5;;
61675;SDS011;47574;52.090;5.244;2022-07-23T04:20:48;6.2;;;4.61;;
61675;SDS011;47574;52.090;5.244;2022-07-23T04:22:34;4.8;;;4.41;;
61675;SDS011;47574;52.090;5.244;2022-07-23T04:24:20;4.41;;;4.0;;
61675;SDS011;47574;52.090;5.244;2022-07-23T04:26:06;9.0;;;4.5;;
61675;SDS011;47574;52.090;5.244;2022-07-23T04:27:53;5.4;;;4.1;;
61675;SDS011;47574;52.090;5.244;2022-07-23T04:29:39;8.0;;;4.0;;
61675;SDS011;47574;52.090;5.244;2022-07-23T04:33:11;5.3;;;4.8;;
61675;SDS011;47574;52.090;5.244;2022-07-23T04:34:58;5.0;;;4.5;;
61675;SDS011;47574;52.090;5.244;2022-07-23T04:36:45;4.61;;;4.3;;
61675;SDS011;47574;52.090;5.244;2022-07-23T04:38:32;4.61;;;4.3;;
61675;SDS011;47574;52.090;5.244;2022-07-23T04:40:19;5.6;;;4.1;;
61675;SDS011;47574;52.090;5.244;2022-07-23T04:42:06;3.4;;;3.1;;
61675;SDS011;47574;52.090;5.244;2022-07-23T04:45:38;5.7;;;3.6;;
61675;SDS011;47574;52.090;5.244;2022-07-23T04:47:25;4.2;;;3.8;;
61675;SDS011;47574;52.090;5.244;2022-07-23T04:49:12;4.1;;;3.7;;
61675;SDS011;47574;52.090;5.244;2022-07-23T04:50:58;3.2;;;3.0;;
61675;SDS011;47574;52.090;5.244;2022-07-23T04:52:45;3.6;;;3.4;;
61675;SDS011;47574;52.090;5.244;2022-07-23T04:56:17;4.61;;;3.6;;
61675;SDS011;47574;52.090;5.244;2022-07-23T04:58:04;4.1;;;3.7;;
61675;SDS011;47574;52.090;5.244;2022-07-23T04:59:50;4.41;;;4.0;;
61675;SDS011;47574;52.090;5.244;2022-07-23T05:01:37;4.0;;;3.7;;
61675;SDS011;47574;52.090;5.244;2022-07-23T05:03:23;4.41;;;4.0;;
61675;SDS011;47574;52.090;5.244;2022-07-23T05:05:09;5.5;;;4.2;;
61675;SDS011;47574;52.090;5.244;2022-07-23T05:08:43;6.3;;;3.9;;
61675;SDS011;47574;52.090;5.244;2022-07-23T05:10:29;4.7;;;4.3;;
61675;SDS011;47574;52.090;5.244;2022-07-23T05:12:16;4.5;;;4.1;;
61675;SDS011;47574;52.090;5.244;2022-07-23T05:14:04;4.5;;;4.1;;
61675;SDS011;47574;52.090;5.244;2022-07-23T05:15:50;5.8;;;3.8;;
61675;SDS011;47574;52.090;5.244;2022-07-23T05:19:23;4.61;;;4.2;;
61675;SDS011;47574;52.090;5.244;2022-07-23T05:21:09;6.3;;;4.2;;
61675;SDS011;47574;52.090;5.244;2022-07-23T05:22:56;6.6;;;4.8;;
61675;SDS011;47574;52.090;5.244;2022-07-23T05:24:43;4.7;;;4.3;;
61675;SDS011;47574;52.090;5.244;2022-07-23T05:26:29;6.3;;;4.91;;
61675;SDS011;47574;52.090;5.244;2022-07-23T05:28:15;5.2;;;4.7;;
61675;SDS011;47574;52.090;5.244;2022-07-23T05:31:49;6.9;;;4.41;;
61675;SDS011;47574;52.090;5.244;2022-07-23T05:33:35;6.9;;;4.7;;
61675;SDS011;47574;52.090;5.244;2022-07-23T05:35:21;4.91;;;4.41;;
61675;SDS011;47574;52.090;5.244;2022-07-23T05:37:07;4.3;;;3.9;;
61675;SDS011;47574;52.090;5.244;2022-07-23T05:38:53;3.7;;;3.4;;
61675;SDS011;47574;52.090;5.244;2022-07-23T05:42:26;4.0;;;3.6;;
61675;SDS011;47574;52.090;5.244;2022-07-23T05:44:12;4.3;;;3.3;;
61675;SDS011;47574;52.090;5.244;2022-07-23T05:45:58;3.8;;;2.9;;
61675;SDS011;47574;52.090;5.244;2022-07-23T05:47:45;3.1;;;2.7;;
61675;SDS011;47574;52.090;5.244;2022-07-23T05:49:34;3.3;;;2.6;;
61675;SDS011;47574;52.090;5.244;2022-07-23T05:51:23;3.4;;;2.5;;
61675;SDS011;47574;52.090;5.244;2022-07-23T05:54:59;3.3;;;2.6;;
61675;SDS011;47574;52.090;5.244;2022-07-23T05:56:46;3.5;;;2.1;;
61675;SDS011;47574;52.090;5.244;2022-07-23T05:58:32;3.3;;;2.31;;
61675;SDS011;47574;52.090;5.244;2022-07-23T06:00:18;3.3;;;2.7;;
61675;SDS011;47574;52.090;5.244;2022-07-23T06:02:05;2.4;;;1.9;;
61675;SDS011;47574;52.090;5.244;2022-07-23T06:03:51;3.8;;;1.9;;
61675;SDS011;47574;52.090;5.244;2022-07-23T06:07:23;2.1;;;1.8;;
61675;SDS011;47574;52.090;5.244;2022-07-23T06:09:10;2.9;;;2.0;;
61675;SDS011;47574;52.090;5.244;2022-07-23T06:10:57;2.9;;;1.6;;
61675;SDS011;47574;52.090;5.244;2022-07-23T06:12:45;2.4;;;1.8;;
61675;SDS011;47574;52.090;5.244;2022-07-23T06:14:32;3.0;;;2.1;;
61675;SDS011;47574;52.090;5.244;2022-07-23T06:19:54;4.91;;;1.9;;
61675;SDS011;47574;52.090;5.244;2022-07-23T06:21:41;3.0;;;1.5;;
61675;SDS011;47574;52.090;5.244;2022-07-23T06:23:28;2.8;;;1.8;;
61675;SDS011;47574;52.090;5.244;2022-07-23T06:25:16;2.6;;;1.6;;
61675;SDS011;47574;52.090;5.244;2022-07-23T06:27:02;2.7;;;1.6;;
61675;SDS011;47574;52.090;5.244;2022-07-23T06:28:49;2.6;;;1.5;;
61675;SDS011;47574;52.090;5.244;2022-07-23T06:32:21;2.4;;;1.5;;
61675;SDS011;47574;52.090;5.244;2022-07-23T06:34:08;2.0;;;1.3;;
61675;SDS011;47574;52.090;5.244;2022-07-23T06:35:54;1.7;;;1.2;;
61675;SDS011;47574;52.090;5.244;2022-07-23T06:37:40;1.8;;;1.5;;
61675;SDS011;47574;52.090;5.244;2022-07-23T06:39:26;1.6;;;1.4;;
61675;SDS011;47574;52.090;5.244;2022-07-23T06:42:59;1.9;;;1.5;;
61675;SDS011;47574;52.090;5.244;2022-07-23T06:44:45;2.6;;;1.3;;
61675;SDS011;47574;52.090;5.244;2022-07-23T06:46:31;2.6;;;1.2;;
61675;SDS011;47574;52.090;5.244;2022-07-23T06:48:18;2.31;;;1.2;;
61675;SDS011;47574;52.090;5.244;2022-07-23T06:50:05;2.1;;;1.2;;
61675;SDS011;47574;52.090;5.244;2022-07-23T06:51:52;3.3;;;1.0;;
61675;SDS011;47574;52.090;5.244;2022-07-23T06:55:24;2.6;;;1.11;;
61675;SDS011;47574;52.090;5.244;2022-07-23T06:57:10;2.6;;;1.2;;
61675;SDS011;47574;52.090;5.244;2022-07-23T06:58:57;2.4;;;1.2;;
61675;SDS011;47574;52.090;5.244;2022-07-23T07:00:43;2.0;;;1.3;;
61675;SDS011;47574;52.090;5.244;2022-07-23T07:02:29;2.1;;;1.3;;
61675;SDS011;47574;52.090;5.244;2022-07-23T07:06:03;2.6;;;0.8;;
61675;SDS011;47574;52.090;5.244;2022-07-23T07:07:49;1.7;;;0.9;;
61675;SDS011;47574;52.090;5.244;2022-07-23T07:09:35;2.9;;;1.0;;
61675;SDS011;47574;52.090;5.244;2022-07-23T07:11:21;1.7;;;1.11;;
61675;SDS011;47574;52.090;5.244;2022-07-23T07:13:07;2.8;;;0.9;;
61675;SDS011;47574;52.090;5.244;2022-07-23T07:14:53;2.6;;;1.2;;
61675;SDS011;47574;52.090;5.244;2022-07-23T07:18:28;1.8;;;1.0;;
61675;SDS011;47574;52.090;5.244;2022-07-23T07:20:14;1.7;;;1.11;;
61675;SDS011;47574;52.090;5.244;2022-07-23T07:22:01;2.5;;;1.2;;
61675;SDS011;47574;52.090;5.244;2022-07-23T07:23:48;2.6;;;1.11;;
61675;SDS011;47574;52.090;5.244;2022-07-23T07:25:34;1.11;;;1.0;;
61675;SDS011;47574;52.090;5.244;2022-07-23T07:29:08;2.31;;;1.5;;
61675;SDS011;47574;52.090;5.244;2022-07-23T07:30:54;2.6;;;1.2;;
61675;SDS011;47574;52.090;5.244;2022-07-23T07:32:40;2.31;;;1.3;;
61675;SDS011;47574;52.090;5.244;2022-07-23T07:34:27;3.0;;;1.2;;
61675;SDS011;47574;52.090;5.244;2022-07-23T07:36:14;3.3;;;1.3;;
61675;SDS011;47574;52.090;5.244;2022-07-23T07:38:01;3.3;;;1.11;;
61675;SDS011;47574;52.090;5.244;2022-07-23T07:41:33;2.8;;;1.0;;
61675;SDS011;47574;52.090;5.244;2022-07-23T07:43:21;1.5;;;1.2;;
61675;SDS011;47574;52.090;5.244;2022-07-23T07:45:07;3.9;;;1.2;;
61675;SDS011;47574;52.090;5.244;2022-07-23T07:46:54;2.8;;;1.2;;
61675;SDS011;47574;52.090;5.244;2022-07-23T07:48:40;1.8;;;1.4;;
61675;SDS011;47574;52.090;5.244;2022-07-23T07:50:26;3.6;;;1.2;;
61675;SDS011;47574;52.090;5.244;2022-07-23T07:53:59;1.8;;;1.0;;
61675;SDS011;47574;52.090;5.244;2022-07-23T07:55:47;1.8;;;1.0;;
61675;SDS011;47574;52.090;5.244;2022-07-23T07:57:33;1.4;;;1.0;;
61675;SDS011;47574;52.090;5.244;2022-07-23T07:59:20;1.7;;;1.3;;
61675;SDS011;47574;52.090;5.244;2022-07-23T08:01:07;3.4;;;1.4;;
61675;SDS011;47574;52.090;5.244;2022-07-23T08:04:40;3.8;;;1.2;;
61675;SDS011;47574;52.090;5.244;2022-07-23T08:06:26;2.9;;;1.11;;
61675;SDS011;47574;52.090;5.244;2022-07-23T08:08:14;1.3;;;1.2;;
61675;SDS011;47574;52.090;5.244;2022-07-23T08:10:01;1.9;;;1.11;;
61675;SDS011;47574;52.090;5.244;2022-07-23T08:11:48;1.8;;;0.9;;
61675;SDS011;47574;52.090;5.244;2022-07-23T08:13:37;1.6;;;0.7;;
61675;SDS011;47574;52.090;5.244;2022-07-23T08:17:11;2.0;;;1.11;;
61675;SDS011;47574;52.090;5.244;2022-07-23T08:18:57;2.8;;;1.0;;
61675;SDS011;47574;52.090;5.244;2022-07-23T08:20:44;2.8;;;1.0;;
61675;SDS011;47574;52.090;5.244;2022-07-23T08:22:46;1.0;;;0.8;;
61675;SDS011;47574;52.090;5.244;2022-07-23T08:24:37;1.5;;;1.0;;
61675;SDS011;47574;52.090;5.244;2022-07-23T08:26:23;3.4;;;0.9;;
61675;SDS011;47574;52.090;5.244;2022-07-23T08:28:10;1.8;;;1.11;;
61675;SDS011;47574;52.090;5.244;2022-07-23T08:31:45;2.9;;;1.0;;
61675;SDS011;47574;52.090;5.244;2022-07-23T08:33:32;2.5;;;1.0;;
61675;SDS011;47574;52.090;5.244;2022-07-23T08:35:21;2.5;;;1.11;;
61675;SDS011;47574;52.090;5.244;2022-07-23T08:37:09;3.6;;;1.3;;
61675;SDS011;47574;52.090;5.244;2022-07-23T08:38:55;3.1;;;1.3;;
61675;SDS011;47574;52.090;5.244;2022-07-23T08:40:43;1.3;;;0.8;;
61675;SDS011;47574;52.090;5.244;2022-07-23T08:44:19;1.9;;;0.9;;
61675;SDS011;47574;52.090;5.244;2022-07-23T08:46:05;3.2;;;1.0;;
61675;SDS011;47574;52.090;5.244;2022-07-23T08:47:52;1.8;;;0.8;;
61675;SDS011;47574;52.090;5.244;2022-07-23T08:49:41;2.1;;;0.8;;
61675;SDS011;47574;52.090;5.244;2022-07-23T08:51:28;1.4;;;1.0;;
61675;SDS011;47574;52.090;5.244;2022-07-23T08:53:14;1.4;;;0.9;;
61675;SDS011;47574;52.090;5.244;2022-07-23T08:56:50;1.11;;;0.9;;
61675;SDS011;47574;52.090;5.244;2022-07-23T08:58:37;4.3;;;0.8;;
61675;SDS011;47574;52.090;5.244;2022-07-23T09:00:24;1.3;;;0.7;;
61675;SDS011;47574;52.090;5.244;2022-07-23T09:02:11;1.3;;;0.7;;
61675;SDS011;47574;52.090;5.244;2022-07-23T09:03:58;1.6;;;0.9;;
61675;SDS011;47574;52.090;5.244;2022-07-23T09:05:45;4.41;;;3.9;;
61675;SDS011;47574;52.090;5.244;2022-07-23T09:09:19;1.6;;;0.7;;
61675;SDS011;47574;52.090;5.244;2022-07-23T09:11:09;2.4;;;0.9;;
61675;SDS011;47574;52.090;5.244;2022-07-23T09:12:57;2.1;;;0.9;;
61675;SDS011;47574;52.090;5.244;2022-07-23T09:14:46;3.1;;;0.9;;
61675;SDS011;47574;52.090;5.244;2022-07-23T09:16:33;1.8;;;1.5;;
61675;SDS011;47574;52.090;5.244;2022-07-23T09:18:20;1.4;;;0.8;;
61675;SDS011;47574;52.090;5.244;2022-07-23T09:22:16;2.6;;;0.8;;
61675;SDS011;47574;52.090;5.244;2022-07-23T09:24:08;1.4;;;0.9;;
61675;SDS011;47574;52.090;5.244;2022-07-23T09:25:56;3.5;;;1.11;;
61675;SDS011;47574;52.090;5.244;2022-07-23T09:27:52;2.1;;;1.0;;
61675;SDS011;47574;52.090;5.244;2022-07-23T09:29:40;1.5;;;0.8;;
61675;SDS011;47574;52.090;5.244;2022-07-23T09:31:43;1.0;;;0.8;;
61675;SDS011;47574;52.090;5.244;2022-07-23T09:33:32;1.8;;;1.11;;
61675;SDS011;47574;52.090;5.244;2022-07-23T09:35:19;3.8;;;3.2;;
61675;SDS011;47574;52.090;5.244;2022-07-23T09:37:08;1.2;;;1.11;;
61675;SDS011;47574;52.090;5.244;2022-07-23T09:40:43;2.31;;;2.1;;
61675;SDS011;47574;52.090;5.244;2022-07-23T09:42:30;2.0;;;1.4;;
61675;SDS011;47574;52.090;5.244;2022-07-23T09:44:19;2.6;;;1.3;;
61675;SDS011;47574;52.090;5.244;2022-07-23T09:46:23;2.8;;;1.2;;
61675;SDS011;47574;52.090;5.244;2022-07-23T09:48:12;1.2;;;0.8;;
61675;SDS011;47574;52.090;5.244;2022-07-23T09:50:00;1.8;;;0.8;;
61675;SDS011;47574;52.090;5.244;2022-07-23T09:51:51;1.6;;;1.0;;
61675;SDS011;47574;52.090;5.244;2022-07-23T09:55:31;1.2;;;1.11;;
61675;SDS011;47574;52.090;5.244;2022-07-23T09:57:17;2.21;;;0.8;;
61675;SDS011;47574;52.090;5.244;2022-07-23T09:59:04;1.4;;;0.9;;
61675;SDS011;47574;52.090;5.244;2022-07-23T10:00:52;1.3;;;0.7;;
61675;SDS011;47574;52.090;5.244;2022-07-23T10:02:39;1.11;;;0.8;;
61675;SDS011;47574;52.090;5.244;2022-07-23T10:04:27;1.11;;;0.8;;
61675;SDS011;47574;52.090;5.244;2022-07-23T10:08:02;1.2;;;0.9;;
61675;SDS011;47574;52.090;5.244;2022-07-23T10:09:50;1.11;;;0.8;;
61675;SDS011;47574;52.090;5.244;2022-07-23T10:11:38;1.4;;;1.0;;
61675;SDS011;47574;52.090;5.244;2022-07-23T10:13:56;3.1;;;0.9;;
61675;SDS011;47574;52.090;5.244;2022-07-23T10:15:45;2.0;;;0.8;;
61675;SDS011;47574;52.090;5.244;2022-07-23T10:17:33;0.9;;;0.7;;
61675;SDS011;47574;52.090;5.244;2022-07-23T10:19:20;0.8;;;0.7;;
61675;SDS011;47574;52.090;5.244;2022-07-23T10:21:08;1.11;;;0.8;;
61675;SDS011;47574;52.090;5.244;2022-07-23T10:24:53;1.8;;;0.9;;
61675;SDS011;47574;52.090;5.244;2022-07-23T10:26:51;1.7;;;0.9;;
61675;SDS011;47574;52.090;5.244;2022-07-23T10:29:01;0.9;;;0.7;;
61675;SDS011;47574;52.090;5.244;2022-07-23T10:31:00;0.8;;;0.7;;
61675;SDS011;47574;52.090;5.244;2022-07-23T10:32:56;1.7;;;0.7;;
61675;SDS011;47574;52.090;5.244;2022-07-23T10:35:04;1.7;;;0.8;;
61675;SDS011;47574;52.090;5.244;2022-07-23T10:37:06;1.4;;;0.8;;
61675;SDS011;47574;52.090;5.244;2022-07-23T10:39:07;1.8;;;0.9;;
61675;SDS011;47574;52.090;5.244;2022-07-23T10:40:57;2.6;;;0.9;;
61675;SDS011;47574;52.090;5.244;2022-07-23T10:42:47;1.8;;;0.9;;
61675;SDS011;47574;52.090;5.244;2022-07-23T10:44:38;1.4;;;0.7;;
61675;SDS011;47574;52.090;5.244;2022-07-23T10:46:29;1.0;;;0.9;;
61675;SDS011;47574;52.090;5.244;2022-07-23T10:48:18;2.1;;;0.8;;
61675;SDS011;47574;52.090;5.244;2022-07-23T10:52:18;2.9;;;0.9;;
61675;SDS011;47574;52.090;5.244;2022-07-23T10:54:19;1.7;;;0.8;;
61675;SDS011;47574;52.090;5.244;2022-07-23T10:56:07;1.0;;;0.8;;
61675;SDS011;47574;52.090;5.244;2022-07-23T10:57:53;1.2;;;0.8;;
61675;SDS011;47574;52.090;5.244;2022-07-23T11:00:15;1.2;;;0.8;;
61675;SDS011;47574;52.090;5.244;2022-07-23T11:02:33;1.4;;;0.9;;
61675;SDS011;47574;52.090;5.244;2022-07-23T11:04:22;1.8;;;0.9;;
61675;SDS011;47574;52.090;5.244;2022-07-23T11:07:07;1.6;;;0.9;;
61675;SDS011;47574;52.090;5.244;2022-07-23T11:09:24;1.11;;;0.8;;
61675;SDS011;47574;52.090;5.244;2022-07-23T11:13:13;1.11;;;0.8;;
61675;SDS011;47574;52.090;5.244;2022-07-23T11:15:15;1.9;;;0.9;;
61675;SDS011;47574;52.090;5.244;2022-07-23T11:17:02;0.9;;;0.8;;
61675;SDS011;47574;52.090;5.244;2022-07-23T11:19:06;0.8;;;0.8;;
61675;SDS011;47574;52.090;5.244;2022-07-23T11:20:53;1.6;;;0.9;;
61675;SDS011;47574;52.090;5.244;2022-07-23T11:22:45;1.2;;;0.9;;
61675;SDS011;47574;52.090;5.244;2022-07-23T11:24:35;1.11;;;1.0;;
61675;SDS011;47574;52.090;5.244;2022-07-23T11:26:44;1.4;;;1.0;;
61675;SDS011;47574;52.090;5.244;2022-07-23T11:28:54;1.6;;;0.9;;
61675;SDS011;47574;52.090;5.244;2022-07-23T11:30:41;2.1;;;1.11;;
61675;SDS011;47574;52.090;5.244;2022-07-23T11:32:31;1.3;;;1.0;;
61675;SDS011;47574;52.090;5.244;2022-07-23T11:34:24;2.0;;;1.0;;
61675;SDS011;47574;52.090;5.244;2022-07-23T11:38:03;1.2;;;1.0;;
61675;SDS011;47574;52.090;5.244;2022-07-23T11:39:52;1.0;;;1.0;;
61675;SDS011;47574;52.090;5.244;2022-07-23T11:41:43;1.2;;;0.9;;
61675;SDS011;47574;52.090;5.244;2022-07-23T11:43:30;3.1;;;1.11;;
61675;SDS011;47574;52.090;5.244;2022-07-23T11:45:16;2.21;;;1.6;;
61675;SDS011;47574;52.090;5.244;2022-07-23T11:47:03;1.5;;;1.0;;
61675;SDS011;47574;52.090;5.244;2022-07-23T11:50:48;1.4;;;1.11;;
61675;SDS011;47574;52.090;5.244;2022-07-23T11:52:35;1.5;;;1.2;;
61675;SDS011;47574;52.090;5.244;2022-07-23T11:54:22;1.2;;;1.11;;
61675;SDS011;47574;52.090;5.244;2022-07-23T11:56:09;1.2;;;1.2;;
61675;SDS011;47574;52.090;5.244;2022-07-23T11:57:57;1.2;;;1.11;;
61675;SDS011;47574;52.090;5.244;2022-07-23T11:59:46;1.5;;;1.4;;
61675;SDS011;47574;52.090;5.244;2022-07-23T12:01:37;1.5;;;1.3;;
61675;SDS011;47574;52.090;5.244;2022-07-23T12:05:11;1.7;;;1.4;;
61675;SDS011;47574;52.090;5.244;2022-07-23T12:06:59;1.5;;;1.4;;
61675;SDS011;47574;52.090;5.244;2022-07-23T12:08:46;2.1;;;1.4;;
61675;SDS011;47574;52.090;5.244;2022-07-23T12:10:33;1.4;;;1.3;;
61675;SDS011;47574;52.090;5.244;2022-07-23T12:12:22;2.1;;;1.5;;
61675;SDS011;47574;52.090;5.244;2022-07-23T12:14:09;1.5;;;1.4;;
61675;SDS011;47574;52.090;5.244;2022-07-23T12:17:43;1.4;;;1.3;;
61675;SDS011;47574;52.090;5.244;2022-07-23T12:19:32;1.6;;;1.3;;
61675;SDS011;47574;52.090;5.244;2022-07-23T12:21:18;2.4;;;1.4;;
61675;SDS011;47574;52.090;5.244;2022-07-23T12:23:06;2.5;;;1.4;;
61675;SDS011;47574;52.090;5.244;2022-07-23T12:24:55;2.5;;;1.3;;
61675;SDS011;47574;52.090;5.244;2022-07-23T12:27:07;1.9;;;1.5;;
61675;SDS011;47574;52.090;5.244;2022-07-23T12:28:53;2.7;;;1.3;;
61675;SDS011;47574;52.090;5.244;2022-07-23T12:32:28;2.0;;;1.4;;
61675;SDS011;47574;52.090;5.244;2022-07-23T12:34:15;1.8;;;1.3;;
61675;SDS011;47574;52.090;5.244;2022-07-23T12:36:04;1.8;;;1.5;;
61675;SDS011;47574;52.090;5.244;2022-07-23T12:37:59;1.4;;;1.3;;
61675;SDS011;47574;52.090;5.244;2022-07-23T12:39:48;1.4;;;1.3;;
61675;SDS011;47574;52.090;5.244;2022-07-23T12:41:50;2.21;;;1.3;;
61675;SDS011;47574;52.090;5.244;2022-07-23T12:43:39;2.0;;;1.4;;
61675;SDS011;47574;52.090;5.244;2022-07-23T12:45:28;2.4;;;1.4;;
61675;SDS011;47574;52.090;5.244;2022-07-23T12:47:28;3.4;;;1.4;;
61675;SDS011;47574;52.090;5.244;2022-07-23T12:51:14;2.7;;;1.4;;
61675;SDS011;47574;52.090;5.244;2022-07-23T12:53:03;1.4;;;1.2;;
61675;SDS011;47574;52.090;5.244;2022-07-23T12:54:53;2.7;;;1.6;;
61675;SDS011;47574;52.090;5.244;2022-07-23T12:56:43;3.1;;;1.5;;
61675;SDS011;47574;52.090;5.244;2022-07-23T12:58:47;2.5;;;1.5;;
61675;SDS011;47574;52.090;5.244;2022-07-23T13:00:53;2.31;;;1.4;;
61675;SDS011;47574;52.090;5.244;2022-07-23T13:03:19;2.7;;;1.7;;
61675;SDS011;47574;52.090;5.244;2022-07-23T13:05:07;1.9;;;1.5;;